KEAT

Pangborn Memorial Airport

Wenatchee, Washington, USA
METAR KEAT 271155Z AUTO 34009KT 10SM CLR 13/03 A3011 RMK AO2 SLP190 T01280033 10156 20128 51011 $
Observed Flight Rules
May-27 @ 11:55 UTC (12 minutes ago) Visual Flight Rules
Wind Visibility Clouds
340° at 9 knots 10 miles
  • Clear skies
Temperatures Readings
Current 13°C / 55°F
Dewpoint 3°C / 37°F
Humidity 51%
Altimeter 30.11" Hg
Pressure 1019 hPa
Elevation 377
METAR KEAT 271155Z AUTO 34009KT 10SM CLR 13/03 A3011 RMK AO2 SLP190 T01280033 10156 20128 51011 $
Observed Flight Rules
May-27 @ 11:55 UTC
(12 minutes ago)
VFR
Wind Visibility
340° at 9 knots 10 miles
Clouds
  • Clear skies
Temperature Dewpoint
13°C / 55°F 3°C / 37°F
Humidity Altimeter Pressure
51% 30.11" Hg 1019 hPa